KPHF/PHF METAR and TAF weather

Enter ICAO airport designator
Station Type Date Time Source
KPHF METAR 2020/07/07 08:54 UTC NOAA

KPHF 070854Z AUTO 25005KT 10SM SCT050 BKN060 26/22 A3008 RMK AO2 SLP184 T02610217 53003


Station Type Date Time Source
KPHF Decoded METAR 2020/07/07 08:54 UTC NOAA

WILLIAMSBURG INTERNATIONAL AIRPORT , VA, United States (KPHF) 37-08N 76-30W 12M
Jul 07, 2020 - 04:54 AM EDT / 2020.07.07 0854 UTC
Wind: from the WSW (250 degrees) at 6 MPH (5 KT):0
Visibility: 10 mile(s):0
Sky conditions: mostly cloudy
Temperature: 79.0 F (26.1 C)
Dew Point: 71.1 F (21.7 C)
Relative Humidity: 76%
Pressure (altimeter): 30.08 in. Hg (1018 hPa)
Pressure tendency: 0.01 inches (0.3 hPa) higher than three hours ago
ob: KPHF 070854Z AUTO 25005KT 10SM SCT050 BKN060 26/22 A3008 RMK AO2 SLP184 T02610217 53003
cycle: 9

Station Type Date Time Source
KPHF TAF 2020/07/07 06:22 UTC NOAA

TAF KPHF 070520Z 0706/0806 20008KT P6SM SCT120 BKN250
FM071500 17007KT P6SM SCT050
FM080000 17007KT P6SM SCT120

Example: see airport list